Time;durP1;ratioP1;P1;durP2;ratioP2;P2;SDS_P1;SDS_P2;PMS_P1;PMS_P2;Temp;Humidity;BMP_temperature;BMP_pressure;BME280_temperature;BME280_humidity;BME280_pressure;Samples;Min_cycle;Max_cycle;Signal;HPM_P1;HPM_P2
2021/05/18 00:02:20;;;;;;;11.73;10.53;;;;;;;14.70;80.45;99070.70;1739271;80;21118;-92
2021/05/18 00:04:47;;;;;;;10.08;9.28;;;;;;;14.73;80.31;99072.06;1700331;81;21075;-92
2021/05/18 00:07:19;;;;;;;11.60;10.80;;;;;;;14.70;80.44;99072.58;1737014;81;21086;-93
2021/05/18 00:12:31;;;;;;;12.25;11.25;;;;;;;14.64;80.46;99068.20;1744285;80;21680;-92
2021/05/18 00:15:01;;;;;;;11.28;10.38;;;;;;;14.65;80.24;99065.79;1711362;80;21709;-92
2021/05/18 00:17:28;;;;;;;11.45;10.45;;;;;;;14.68;80.36;99054.58;1714539;82;21088;-92
2021/05/18 00:19:58;;;;;;;11.33;10.43;;;;;;;14.71;80.50;99060.77;1720802;82;21142;-91
2021/05/18 00:22:27;;;;;;;19.85;10.23;;;;;;;14.72;80.73;99062.41;1727136;80;21673;-91
2021/05/18 00:24:54;;;;;;;11.15;10.13;;;;;;;14.75;80.67;99060.59;1744687;81;21075;-92
2021/05/18 00:27:23;;;;;;;10.40;9.65;;;;;;;14.83;80.36;99051.30;1735229;81;21050;-93
2021/05/18 00:29:50;;;;;;;11.05;10.23;;;;;;;14.68;80.25;99019.17;1738711;80;21534;-91
2021/05/18 00:32:19;;;;;;;10.48;9.65;;;;;;;14.87;80.00;99045.72;1732931;80;21166;-92
2021/05/18 00:34:53;;;;;;;10.75;9.95;;;;;;;14.77;79.94;99035.13;1739599;80;21600;-91
2021/05/18 00:37:21;;;;;;;16.75;15.23;;;;;;;14.75;79.81;99029.74;1746143;81;21021;-92
2021/05/18 00:39:53;;;;;;;10.45;9.75;;;;;;;14.79;79.59;99028.18;1737145;81;21128;-93
2021/05/18 00:42:23;;;;;;;11.20;10.35;;;;;;;14.79;79.12;99025.50;1721753;82;21064;-93
2021/05/18 00:44:51;;;;;;;12.00;10.80;;;;;;;14.75;78.92;99034.56;1713565;81;21200;-92
2021/05/18 00:47:21;;;;;;;11.40;10.60;;;;;;;14.69;78.92;99044.12;1735629;80;21078;-94
2021/05/18 00:49:48;;;;;;;12.75;11.85;;;;;;;14.62;78.85;99044.81;1735903;81;21091;-92
2021/05/18 00:52:24;;;;;;;11.75;10.75;;;;;;;14.60;78.84;99037.84;1725704;81;21079;-89
2021/05/18 00:55:03;;;;;;;11.97;11.08;;;;;;;14.64;79.05;99041.39;1740711;80;21143;-91
2021/05/18 01:00:14;;;;;;;13.20;11.97;;;;;;;14.56;79.49;99032.66;1737373;81;21111;-86
2021/05/18 01:02:41;;;;;;;13.22;11.83;;;;;;;14.45;79.66;99035.42;1750682;80;21096;-92
2021/05/18 01:06:18;;;;;;;12.85;11.70;;;;;;;14.41;79.79;99039.15;1734575;81;21131;-91
2021/05/18 01:07:54;;;;;;;12.88;11.63;;;;;;;14.42;79.60;99030.03;1735079;81;21303;-92
2021/05/18 01:10:20;;;;;;;15.30;13.83;;;;;;;14.41;79.75;99034.59;1729008;82;21037;-93
2021/05/18 01:12:48;;;;;;;14.63;13.30;;;;;;;14.40;80.04;99032.95;1745328;81;21039;-92
2021/05/18 01:15:15;;;;;;;13.70;12.47;;;;;;;14.32;80.18;99025.87;1721926;82;21073;-93
2021/05/18 01:17:44;;;;;;;13.00;11.75;;;;;;;14.39;80.05;99031.85;1720582;81;21586;-92
2021/05/18 01:20:14;;;;;;;12.75;11.63;;;;;;;14.47;79.72;99031.45;1694368;83;21158;-92
2021/05/18 01:22:47;;;;;;;12.65;11.35;;;;;;;14.50;79.38;99029.61;1679124;83;21111;-93
2021/05/18 01:25:17;;;;;;;12.18;11.18;;;;;;;14.48;79.45;99026.36;1711170;81;21612;-94
2021/05/18 01:27:46;;;;;;;12.05;11.12;;;;;;;14.45;79.42;99030.89;1721930;81;21137;-92
2021/05/18 01:30:15;;;;;;;11.63;10.63;;;;;;;14.37;79.37;99019.23;1727604;81;21186;-91
2021/05/18 01:32:42;;;;;;;11.85;10.85;;;;;;;14.43;79.22;99020.11;1724592;80;21220;-92
2021/05/18 01:35:15;;;;;;;11.75;10.65;;;;;;;14.48;78.96;99020.20;1700876;82;21063;-91
2021/05/18 01:37:49;;;;;;;11.28;10.28;;;;;;;14.50;78.70;99012.18;1713090;82;21631;-92
2021/05/18 01:42:56;;;;;;;13.72;10.65;;;;;;;14.41;78.49;99008.32;1740327;80;21074;-92
2021/05/18 01:45:31;;;;;;;12.10;11.10;;;;;;;14.33;78.50;99006.03;1738711;81;21715;-92
2021/05/18 01:48:10;;;;;;;11.95;10.75;;;;;;;14.31;78.37;99000.91;1741044;81;21190;-94
2021/05/18 01:50:35;;;;;;;10.50;9.68;;;;;;;14.36;78.29;99002.87;1742818;81;21075;-92
2021/05/18 01:53:08;;;;;;;11.85;10.70;;;;;;;14.38;77.97;99002.91;1739752;81;21153;-92
2021/05/18 01:55:52;;;;;;;11.35;10.45;;;;;;;14.33;77.97;98998.80;1739958;81;21167;-92
2021/05/18 01:58:12;;;;;;;11.28;10.38;;;;;;;14.27;78.22;98997.64;1738912;81;21114;-92
2021/05/18 02:00:48;;;;;;;11.97;10.78;;;;;;;14.20;78.19;98995.95;1744475;80;21069;-93
2021/05/18 02:03:20;;;;;;;13.60;12.28;;;;;;;14.18;78.14;98994.05;1747231;81;21159;-92
2021/05/18 02:05:47;;;;;;;11.33;10.30;;;;;;;14.24;78.00;98998.12;1681290;84;21437;-94
2021/05/18 02:08:23;;;;;;;12.33;11.18;;;;;;;14.27;78.00;99004.34;1717988;83;20984;-91
2021/05/18 02:10:53;;;;;;;13.38;12.18;;;;;;;14.25;77.88;99005.92;1687757;83;21096;-92
2021/05/18 02:13:24;;;;;;;12.53;11.33;;;;;;;14.22;78.04;98997.02;1647890;84;21370;-91
2021/05/18 02:16:00;;;;;;;12.40;11.28;;;;;;;14.17;77.67;98991.07;1668684;85;21109;-92
2021/05/18 02:18:41;;;;;;;11.50;10.55;;;;;;;14.14;77.56;98991.55;1733166;81;21682;-92
2021/05/18 02:26:23;;;;;;;13.48;12.28;;;;;;;14.05;77.29;99001.05;1746271;80;21239;-92
2021/05/18 02:28:53;;;;;;;14.38;12.98;;;;;;;13.98;77.59;98998.55;1743665;80;21053;-91
2021/05/18 02:31:22;;;;;;;14.85;13.35;;;;;;;14.00;77.41;98996.97;1741983;81;21112;-92
2021/05/18 02:33:56;;;;;;;13.32;12.10;;;;;;;14.04;77.29;98992.74;1734793;80;21076;-92
2021/05/18 02:36:28;;;;;;;14.13;12.70;;;;;;;14.05;77.20;98998.37;1736630;81;21129;-90
2021/05/18 02:38:56;;;;;;;15.58;13.98;;;;;;;14.03;77.34;98996.46;1737799;78;21271;-92
2021/05/18 02:41:25;;;;;;;15.48;13.98;;;;;;;13.96;77.56;98992.63;1738021;77;21007;-92
2021/05/18 02:44:02;;;;;;;14.68;12.70;;;;;;;13.92;77.90;99000.87;1739755;81;21099;-94
2021/05/18 02:49:09;;;;;;;11.75;10.65;;;;;;;14.04;77.79;99010.16;1739641;81;21147;-93
2021/05/18 02:51:41;;;;;;;12.82;11.70;;;;;;;14.09;77.53;99009.41;1732806;81;21214;-93
2021/05/18 02:54:14;;;;;;;12.20;11.10;;;;;;;14.09;77.56;99018.28;1749438;80;21081;-92
2021/05/18 02:59:17;;;;;;;11.93;10.88;;;;;;;14.05;77.57;99024.36;1685112;84;21233;-93
2021/05/18 03:01:51;;;;;;;13.62;12.35;;;;;;;14.06;77.16;99024.66;1701232;82;21094;-93
2021/05/18 03:04:28;;;;;;;14.40;12.98;;;;;;;14.08;76.91;99031.38;1737323;82;21701;-93
2021/05/18 03:06:58;;;;;;;16.00;14.47;;;;;;;14.07;76.78;99033.80;1680019;83;21160;-93
2021/05/18 03:09:32;;;;;;;13.22;12.03;;;;;;;13.94;76.64;99022.86;1746524;81;21090;-92
2021/05/18 03:12:06;;;;;;;11.95;10.85;;;;;;;13.79;77.16;99030.64;1729031;80;21088;-93
2021/05/18 03:14:37;;;;;;;11.18;10.28;;;;;;;13.62;77.79;99030.08;1724612;81;21162;-94
2021/05/18 03:17:06;;;;;;;11.88;10.88;;;;;;;13.52;77.95;99020.50;1732620;80;21585;-93
2021/05/18 03:19:32;;;;;;;12.60;11.43;;;;;;;13.46;78.35;99015.31;1742077;81;21131;-93
2021/05/18 03:22:05;;;;;;;12.33;11.43;;;;;;;13.42;78.76;99008.28;1717732;81;21163;-92
2021/05/18 03:24:31;;;;;;;12.00;10.95;;;;;;;13.43;78.90;99009.39;1735791;82;21083;-92
2021/05/18 03:26:59;;;;;;;12.03;11.08;;;;;;;13.52;78.79;99018.36;1739322;81;21122;-93
2021/05/18 03:29:30;;;;;;;11.95;10.68;;;;;;;13.64;78.59;99020.47;1736685;81;21115;-92
2021/05/18 03:34:41;;;;;;;12.70;11.53;;;;;;;13.81;78.43;99032.02;1731121;81;21060;-93
2021/05/18 03:37:21;;;;;;;11.90;10.90;;;;;;;13.90;78.37;99035.63;1731106;81;21806;-93
2021/05/18 03:39:45;;;;;;;13.88;10.85;;;;;;;13.95;78.13;99032.51;1737604;81;21122;-93
2021/05/18 03:42:18;;;;;;;12.13;10.90;;;;;;;14.04;77.61;99032.13;1724227;81;21032;-93
2021/05/18 03:53:32;;;;;;;13.18;11.88;;;;;;;14.21;77.35;99031.05;1721172;82;21131;-92
2021/05/18 04:04:05;;;;;;;14.28;12.98;;;;;;;14.33;76.70;99043.03;1748169;80;21427;-92
2021/05/18 04:17:23;;;;;;;23.62;19.73;;;;;;;14.20;76.84;99056.75;1745083;81;21124;-92
2021/05/18 04:20:08;;;;;;;31.90;22.05;;;;;;;14.23;77.08;99070.22;1713896;83;21064;-92
2021/05/18 04:22:44;;;;;;;29.15;20.97;;;;;;;14.20;77.26;99058.93;1700753;80;21028;-92
2021/05/18 04:52:02;;;;;;;26.52;19.70;;;;;;;14.53;77.68;99047.09;1684897;83;21094;-92
2021/05/18 05:00:01;;;;;;;21.42;16.25;;;;;;;14.67;77.09;99047.58;1669201;84;21728;-94
2021/05/18 05:08:19;;;;;;;19.07;17.05;;;;;;;14.75;77.57;99058.70;1777375;79;21126;-94
2021/05/18 05:15:41;;;;;;;16.80;15.20;;;;;;;14.81;77.58;99038.67;1704014;83;21203;-93
2021/05/18 05:18:09;;;;;;;17.05;15.43;;;;;;;14.86;77.54;99027.48;1676812;83;20996;-94
2021/05/18 05:20:36;;;;;;;17.20;15.45;;;;;;;14.89;77.72;99028.30;1721364;82;21024;-93
2021/05/18 05:23:03;;;;;;;17.73;15.90;;;;;;;14.90;77.70;99027.25;1717502;82;21036;-94
2021/05/18 05:25:29;;;;;;;18.32;15.23;;;;;;;14.92;77.89;99019.77;1723610;83;21642;-94
2021/05/18 05:27:56;;;;;;;23.50;16.80;;;;;;;15.00;77.76;99019.86;1711418;83;21115;-94
2021/05/18 05:30:22;;;;;;;16.73;15.18;;;;;;;15.06;77.39;99013.48;1682289;83;21163;-94
2021/05/18 05:32:49;;;;;;;20.35;17.50;;;;;;;15.07;77.38;99012.44;1708323;83;21191;-93
2021/05/18 05:35:16;;;;;;;21.33;17.62;;;;;;;15.10;77.33;99009.77;1715059;82;21596;-94
2021/05/18 05:37:42;;;;;;;;;;;;;;;15.08;77.56;99011.36;1717204;81;21151;-93
2021/05/18 05:40:09;;;;;;;19.85;17.67;;;;;;;15.14;77.70;99011.72;1699733;82;20265;-94
2021/05/18 05:42:35;;;;;;;18.75;16.97;;;;;;;15.25;77.72;99015.85;1718404;82;21129;-93
2021/05/18 05:45:03;;;;;;;21.73;19.80;;;;;;;15.43;77.57;99019.55;1720915;82;21058;-93
2021/05/18 05:47:30;;;;;;;21.55;19.55;;;;;;;15.60;76.82;99026.17;1698721;83;21755;-92
2021/05/18 05:49:56;;;;;;;21.87;19.05;;;;;;;15.68;76.63;99030.27;1690419;83;21591;-92
2021/05/18 05:52:23;;;;;;;25.00;22.80;;;;;;;15.74;75.89;99037.34;1695953;83;21099;-93
2021/05/18 05:54:51;;;;;;;22.42;20.23;;;;;;;15.76;75.85;99031.17;1697925;83;21321;-92
2021/05/18 05:57:19;;;;;;;26.95;21.02;;;;;;;15.81;75.90;99033.13;1721397;81;21107;-93
2021/05/18 05:59:47;;;;;;;35.58;25.12;;;;;;;15.87;75.86;99040.16;1729082;82;21137;-93
2021/05/18 06:02:13;;;;;;;30.23;21.33;;;;;;;15.93;75.82;99039.93;1696613;83;21057;-92
2021/05/18 06:04:40;;;;;;;25.27;19.80;;;;;;;15.98;75.60;99036.49;1700818;83;21142;-93
2021/05/18 06:07:06;;;;;;;;;;;;;;;16.02;75.53;99030.88;1699548;83;21063;-93
2021/05/18 06:09:35;;;;;;;32.88;21.65;;;;;;;16.10;75.49;99033.63;1696021;83;20196;-92
2021/05/18 06:47:51;;;;;;;12.98;10.85;;;;;;;17.08;73.69;98970.45;1694817;84;21714;-93
2021/05/18 06:52:47;;;;;;;26.12;17.35;;;;;;;17.48;72.29;99001.28;1676144;83;21103;-91
2021/05/18 06:55:18;;;;;;;24.47;16.40;;;;;;;17.60;71.71;98992.41;1677796;83;21764;-92
2021/05/18 06:57:51;;;;;;;27.42;20.48;;;;;;;17.63;71.61;98993.22;1722504;82;21077;-91
2021/05/18 07:00:20;;;;;;;31.87;19.98;;;;;;;17.69;71.58;98990.80;1723149;81;21126;-92
2021/05/18 07:02:52;;;;;;;34.63;19.65;;;;;;;17.77;70.94;98994.05;1702795;83;21109;-93
2021/05/18 07:08:01;;;;;;;22.62;15.18;;;;;;;17.97;70.28;98995.44;1683275;83;21174;-92
2021/05/18 07:10:23;;;;;;;9.90;9.15;;;;;;;17.98;69.72;99002.42;1699490;82;21080;-92
2021/05/18 07:12:51;;;;;;;10.38;9.58;;;;;;;17.93;69.97;99001.07;1720473;82;21110;-93
2021/05/18 07:15:22;;;;;;;;;;;;;;;17.92;70.06;98997.32;1730201;83;21075;-93
2021/05/18 07:17:55;;;;;;;11.60;9.08;;;;;;;17.91;69.97;98995.14;1730781;80;20210;-93
2021/05/18 07:20:33;;;;;;;10.95;9.95;;;;;;;17.87;69.94;98995.41;1732636;82;21114;-92
2021/05/18 07:23:11;;;;;;;9.45;8.38;;;;;;;17.91;70.08;98991.09;1713487;83;21350;-91
2021/05/18 07:25:41;;;;;;;7.72;7.20;;;;;;;17.96;70.03;99005.93;1702050;84;21029;-92
2021/05/18 07:28:30;;;;;;;;;;;;;;;;;;;;;
2021/05/18 07:30:51;;;;;;;8.93;8.05;;;;;;;17.84;69.54;99000.81;1705846;83;21116;-92
2021/05/18 07:33:20;;;;;;;7.53;6.22;;;;;;;17.74;69.71;98998.61;1707006;83;21720;-92
2021/05/18 07:35:54;;;;;;;7.92;7.22;;;;;;;17.67;70.13;99002.93;1724973;83;21194;-93
2021/05/18 07:38:17;;;;;;;7.35;6.95;;;;;;;17.64;70.43;99009.64;1716608;83;21060;-93
2021/05/18 07:40:43;;;;;;;8.08;7.67;;;;;;;17.58;70.65;99017.45;1718785;83;21788;-94
2021/05/18 07:43:13;;;;;;;10.70;9.98;;;;;;;17.45;71.14;99013.38;1707465;83;21167;-93
2021/05/18 07:45:39;;;;;;;9.43;8.83;;;;;;;17.34;71.65;99016.32;1672563;83;21067;-94
2021/05/18 07:48:18;;;;;;;10.10;9.30;;;;;;;17.29;72.04;99015.23;1660076;85;21059;-93
2021/05/18 07:50:49;;;;;;;9.45;8.85;;;;;;;17.22;72.21;99011.98;1650648;85;21166;-92
2021/05/18 08:06:59;;;;;;;11.40;10.60;;;;;;;16.65;75.08;99020.83;1669222;84;21986;-93
2021/05/18 08:09:26;;;;;;;9.95;9.28;;;;;;;16.59;75.47;99019.19;1687755;83;22308;-95
2021/05/18 08:11:54;;;;;;;11.12;10.25;;;;;;;16.59;75.47;99019.19;1676764;84;21599;-93
2021/05/18 08:14:21;;;;;;;9.18;8.53;;;;;;;16.63;75.41;99015.73;1660593;85;21118;-94
2021/05/18 08:19:41;;;;;;;11.15;10.35;;;;;;;16.63;75.62;99028.34;1662065;85;21713;-94
2021/05/18 08:22:16;;;;;;;9.55;8.75;;;;;;;16.54;75.90;99034.23;1721588;80;21060;-93
2021/05/18 10:36:13;;;;;;;1.57;0.33;;;;;;;18.65;67.47;98852.58;1739100;81;21152;-89
2021/05/18 10:38:44;;;;;;;0.30;0.20;;;;;;;18.63;67.80;98868.25;1742801;81;21143;-90
2021/05/18 10:41:25;;;;;;;0.20;0.10;;;;;;;18.62;66.43;98869.31;1754713;81;21076;-88
2021/05/18 10:44:04;;;;;;;1.90;0.20;;;;;;;18.63;65.71;98879.03;1741299;81;21210;-89
2021/05/18 10:46:49;;;;;;;0.50;0.30;;;;;;;18.69;65.92;98887.37;1716827;81;21108;-92
2021/05/18 10:49:21;;;;;;;0.37;0.10;;;;;;;18.81;65.64;98873.56;1739765;81;21067;-92
2021/05/18 10:51:53;;;;;;;2.75;0.10;;;;;;;18.83;64.97;98873.54;1737288;81;21051;-92
2021/05/18 10:54:33;;;;;;;0.40;0.10;;;;;;;18.81;65.22;98866.27;1688643;81;21095;-93
2021/05/18 10:57:13;;;;;;;0.20;0.20;;;;;;;18.79;64.75;98856.27;1729162;80;21635;-91
2021/05/18 10:59:54;;;;;;;1.20;0.15;;;;;;;18.80;64.80;98859.27;1717413;81;21286;-92
2021/05/18 11:02:37;;;;;;;0.78;0.30;;;;;;;18.81;63.89;98867.62;1735183;80;21668;-91
2021/05/18 11:05:18;;;;;;;0.20;0.10;;;;;;;18.80;63.19;98861.97;1742220;80;21023;-93
2021/05/18 11:07:46;;;;;;;0.20;0.10;;;;;;;18.82;62.79;98855.75;1762838;80;21102;-92
2021/05/18 11:10:18;;;;;;;0.13;0.10;;;;;;;18.88;62.98;98859.22;1750529;80;21155;-91
2021/05/18 11:12:51;;;;;;;1.40;0.30;;;;;;;18.86;62.83;98858.14;1716719;81;21581;-93
2021/05/18 11:15:24;;;;;;;1.25;0.45;;;;;;;18.83;63.25;98847.90;1747918;80;21107;-93
2021/05/18 11:17:56;;;;;;;2.67;0.40;;;;;;;18.83;63.68;98853.30;1744869;81;20976;-91
2021/05/18 11:23:23;;;;;;;0.20;0.20;;;;;;;18.85;63.97;98843.58;1743862;81;21145;-91
2021/05/18 11:26:06;;;;;;;0.20;0.20;;;;;;;18.93;64.04;98845.70;1734729;82;21060;-92
2021/05/18 11:28:45;;;;;;;2.33;0.30;;;;;;;18.90;64.09;98833.30;1697484;81;21210;-91
2021/05/18 11:31:23;;;;;;;0.82;0.30;;;;;;;18.83;64.23;98835.75;1732451;82;21697;-91
2021/05/18 11:33:53;;;;;;;2.05;0.20;;;;;;;18.79;63.98;98842.77;1718023;81;21074;-93
2021/05/18 11:36:28;;;;;;;0.20;0.20;;;;;;;18.75;64.33;98825.52;1685437;83;21594;-93
2021/05/18 11:39:11;;;;;;;8.90;0.20;;;;;;;18.73;64.40;98826.34;1716252;83;21088;-92
2021/05/18 11:41:41;;;;;;;1.05;0.20;;;;;;;18.75;64.57;98826.07;1681304;85;21051;-95
2021/05/18 11:44:10;;;;;;;0.68;0.20;;;;;;;18.80;64.58;98824.18;1685194;83;21182;-92
2021/05/18 11:46:45;;;;;;;0.30;0.13;;;;;;;18.77;64.94;98821.20;1685394;83;21657;-93
2021/05/18 11:49:16;;;;;;;0.20;0.17;;;;;;;18.72;65.20;98831.47;1722397;81;21097;-92
2021/05/18 11:51:51;;;;;;;4.20;0.57;;;;;;;18.68;66.04;98846.61;1727267;81;21140;-93
2021/05/18 11:54:22;;;;;;;4.85;1.72;;;;;;;18.56;67.45;98840.20;1709798;82;21087;-93
2021/05/18 11:56:57;;;;;;;4.25;1.00;;;;;;;18.44;68.68;98837.84;1716676;82;21039;-92
2021/05/18 11:59:24;;;;;;;3.72;1.12;;;;;;;18.21;69.17;98841.95;1715719;82;21099;-92
2021/05/18 12:02:01;;;;;;;2.72;1.22;;;;;;;17.93;70.31;98850.11;1698278;82;21069;-92
2021/05/18 12:04:30;;;;;;;4.12;1.55;;;;;;;17.64;71.62;98857.41;1660693;85;21013;-93
2021/05/18 12:07:12;;;;;;;3.60;1.02;;;;;;;17.43;72.03;98854.47;1669921;84;22182;-93
2021/05/18 12:09:45;;;;;;;6.67;5.47;;;;;;;17.38;72.70;98859.30;1690968;83;21111;-91
2021/05/18 12:12:15;;;;;;;3.30;2.27;;;;;;;17.32;73.19;98861.73;1725458;82;21113;-90
2021/05/18 12:14:50;;;;;;;2.27;1.55;;;;;;;17.23;73.13;98862.80;1713551;82;21078;-92
2021/05/18 12:17:27;;;;;;;3.30;1.05;;;;;;;17.09;73.34;98859.83;1703956;82;21092;-92
2021/05/18 12:19:54;;;;;;;4.90;1.77;;;;;;;16.99;73.19;98852.27;1707600;83;21101;-91
2021/05/18 12:22:20;;;;;;;1.45;1.35;;;;;;;16.95;73.51;98851.19;1704051;82;21209;-90
2021/05/18 12:24:47;;;;;;;5.97;1.65;;;;;;;16.96;73.97;98850.13;1715210;82;21056;-89
2021/05/18 12:27:14;;;;;;;2.27;1.70;;;;;;;16.97;74.35;98849.03;1719145;81;21074;-92
2021/05/18 12:29:54;;;;;;;7.45;2.33;;;;;;;17.01;75.04;98855.50;1731186;81;21194;-91
2021/05/18 12:32:35;;;;;;;4.40;2.15;;;;;;;17.06;75.69;98858.20;1725672;81;21612;-92
2021/05/18 12:35:12;;;;;;;4.55;2.27;;;;;;;17.10;75.93;98853.89;1711323;82;21077;-93
2021/05/18 12:37:45;;;;;;;3.30;2.05;;;;;;;17.10;75.93;98853.89;1714037;81;21035;-92
2021/05/18 12:40:32;;;;;;;4.53;4.12;;;;;;;17.14;77.10;98849.62;1733222;81;21082;-91
2021/05/18 12:43:18;;;;;;;6.27;2.80;;;;;;;17.14;77.10;98849.62;1726347;82;21194;-90
2021/05/18 12:45:44;;;;;;;4.08;2.80;;;;;;;17.13;77.55;98850.68;1707056;82;22419;-87
2021/05/18 12:48:13;;;;;;;3.33;2.25;;;;;;;16.92;77.58;98821.05;1697905;82;21067;-91
2021/05/18 12:50:51;;;;;;;3.40;2.40;;;;;;;17.09;77.64;98846.91;1728802;81;21134;-90
2021/05/18 12:53:28;;;;;;;3.77;2.40;;;;;;;17.09;77.92;98850.41;1734515;81;21193;-91
2021/05/18 12:55:56;;;;;;;3.90;2.45;;;;;;;17.08;77.97;98854.70;1682728;82;21072;-90
2021/05/18 12:58:32;;;;;;;2.45;2.33;;;;;;;17.09;77.41;98848.26;1713897;81;21153;-92
2021/05/18 13:01:13;;;;;;;5.75;2.75;;;;;;;17.12;76.89;98850.40;1701452;81;21033;-92
2021/05/18 13:03:43;;;;;;;4.92;3.10;;;;;;;17.10;76.88;98858.77;1763911;80;21175;-91
2021/05/18 13:06:12;;;;;;;3.60;3.30;;;;;;;17.10;77.02;98861.45;1752212;81;21685;-91
2021/05/18 13:08:40;;;;;;;10.98;3.15;;;;;;;17.08;77.08;98854.70;1728858;80;21119;-92
2021/05/18 13:12:10;;;;;;;8.18;3.85;;;;;;;17.07;77.17;98850.41;1711928;82;21201;-92
2021/05/18 13:13:50;;;;;;;;;;;;;;;17.09;77.42;98840.98;1717348;82;21036;-91
2021/05/18 13:16:32;;;;;;;6.10;3.40;;;;;;;17.10;77.56;98853.89;1701611;82;20217;-91
2021/05/18 13:19:12;;;;;;;13.35;5.72;;;;;;;17.07;77.42;98845.03;1705289;82;21137;-92
2021/05/18 13:21:50;;;;;;;16.40;5.72;;;;;;;17.08;77.57;98850.67;1719818;81;21565;-91
2021/05/18 13:26:41;;;;;;;9.30;6.65;;;;;;;16.99;77.91;98847.71;1701711;82;21292;-88
2021/05/18 13:29:16;;;;;;;13.80;5.83;;;;;;;17.03;78.06;98851.48;1709108;82;21251;-91
2021/05/18 13:31:43;;;;;;;4.08;3.47;;;;;;;17.05;78.26;98853.91;1708441;83;21176;-91
2021/05/18 13:34:12;;;;;;;8.10;4.00;;;;;;;17.06;78.05;98853.62;1729711;81;21028;-91
2021/05/18 13:36:41;;;;;;;9.58;4.15;;;;;;;17.02;77.78;98855.23;1701383;82;21091;-92
2021/05/18 13:39:18;;;;;;;14.00;5.67;;;;;;;16.96;78.02;98856.86;1704078;83;21071;-91
2021/05/18 13:41:45;;;;;;;10.18;3.87;;;;;;;16.98;77.84;98861.43;1704171;83;22137;-90
2021/05/18 13:44:13;;;;;;;6.08;3.15;;;;;;;17.08;77.70;98851.50;1717788;83;21130;-91
2021/05/18 13:46:44;;;;;;;4.47;3.80;;;;;;;17.09;77.09;98845.02;1701470;81;21167;-92
2021/05/18 13:49:13;;;;;;;5.37;4.42;;;;;;;16.97;77.76;98836.92;1723536;82;21743;-91
2021/05/18 13:51:44;;;;;;;6.05;5.55;;;;;;;16.86;78.04;98850.92;1722818;82;21224;-90
2021/05/18 13:54:13;;;;;;;10.93;5.65;;;;;;;16.83;78.67;98860.31;1673963;83;21111;-90
2021/05/18 13:56:41;;;;;;;6.45;5.65;;;;;;;16.84;79.27;98843.11;1691667;83;21103;-89
2021/05/18 13:59:07;;;;;;;7.37;5.22;;;;;;;16.84;79.27;98843.11;1684075;83;21166;-90
2021/05/18 14:01:37;;;;;;;5.95;5.45;;;;;;;16.82;79.48;98846.60;1676263;83;21145;-90
2021/05/18 14:04:03;;;;;;;8.68;5.45;;;;;;;16.91;80.10;98843.66;1678934;83;21117;-90
2021/05/18 14:06:30;;;;;;;9.38;5.53;;;;;;;16.91;80.10;98843.66;1666121;83;21076;-89
2021/05/18 14:09:04;;;;;;;6.50;5.25;;;;;;;17.05;79.78;98840.45;1667377;83;21069;-90
2021/05/18 14:11:31;;;;;;;9.28;4.90;;;;;;;17.18;79.70;98843.96;1691798;83;21075;-91
2021/05/18 14:13:59;;;;;;;14.33;7.30;;;;;;;17.31;79.56;98845.32;1708484;83;21153;-90
2021/05/18 14:16:26;;;;;;;10.45;7.00;;;;;;;17.39;78.22;98830.51;1700867;82;21199;-91
2021/05/18 14:18:57;;;;;;;14.98;8.35;;;;;;;17.40;78.12;98824.03;1704433;83;21139;-91
2021/05/18 14:21:25;;;;;;;13.80;6.83;;;;;;;17.39;77.90;98815.69;1713686;82;21084;-89
2021/05/18 14:23:59;;;;;;;9.78;5.75;;;;;;;17.41;77.26;98816.23;1705121;82;21059;-91
2021/05/18 14:26:30;;;;;;;7.37;5.67;;;;;;;17.46;76.97;98807.61;1717270;83;21119;-91
2021/05/18 14:28:58;;;;;;;7.60;5.10;;;;;;;17.52;76.72;98788.20;1703912;83;21152;-89
2021/05/18 14:31:25;;;;;;;6.75;4.50;;;;;;;17.40;75.76;98789.81;1718999;82;21217;-91
2021/05/18 14:33:52;;;;;;;7.15;3.62;;;;;;;17.40;75.76;98789.81;1714156;82;21104;-93
2021/05/18 14:36:18;;;;;;;8.48;4.83;;;;;;;17.42;76.07;98789.55;1674333;84;21080;-91
2021/05/18 14:38:46;;;;;;;6.28;4.95;;;;;;;17.49;76.01;98789.53;1687503;83;21143;-92
2021/05/18 14:44:06;;;;;;;7.95;5.12;;;;;;;17.50;75.74;98781.73;1679137;84;21277;-91
2021/05/18 14:54:52;;;;;;;7.35;3.90;;;;;;;17.70;74.14;98795.69;1680365;83;21160;-90
2021/05/18 14:57:16;;;;;;;8.63;5.17;;;;;;;17.67;74.41;98806.23;1658384;84;21178;-89
2021/05/18 14:59:43;;;;;;;10.90;6.53;;;;;;;17.65;74.26;98807.84;1681664;84;21024;-90
2021/05/18 15:02:10;;;;;;;8.35;6.47;;;;;;;17.66;74.71;98804.61;1667080;84;21112;-90
2021/05/18 15:04:36;;;;;;;;;;;;;;;17.70;74.78;98798.39;1686283;85;21076;-90
2021/05/18 15:07:07;;;;;;;7.72;5.62;;;;;;;17.65;75.15;98787.64;1673042;84;20279;-91
2021/05/18 15:09:36;;;;;;;6.50;5.75;;;;;;;17.65;75.15;98787.64;1676692;84;21609;-91
2021/05/18 15:12:04;;;;;;;7.22;6.45;;;;;;;17.34;75.35;98749.16;1681826;84;21145;-92
2021/05/18 15:14:30;;;;;;;9.95;6.78;;;;;;;17.34;75.35;98749.16;1719565;82;21111;-92
2021/05/18 15:16:58;;;;;;;9.83;7.10;;;;;;;17.52;75.71;98780.13;1718998;82;21101;-93
2021/05/18 15:19:26;;;;;;;10.90;6.83;;;;;;;17.52;75.76;98785.52;1686341;82;21033;-91
2021/05/18 15:21:53;;;;;;;9.58;7.62;;;;;;;17.52;75.42;98788.20;1730512;82;21083;-90
2021/05/18 15:24:21;;;;;;;9.23;7.70;;;;;;;17.51;75.72;98797.35;1722173;83;22201;-91
2021/05/18 15:26:47;;;;;;;11.30;7.42;;;;;;;17.46;76.20;98804.91;1700874;82;21122;-90
2021/05/18 15:29:13;;;;;;;;;;;;;;;17.46;76.47;98809.47;1717665;83;21104;-92
2021/05/18 15:31:41;;;;;;;11.08;7.40;;;;;;;17.51;76.55;98806.23;1700023;83;20252;-91
2021/05/18 15:34:14;;;;;;;14.13;8.63;;;;;;;17.54;76.56;98794.64;1710727;82;21671;-89
2021/05/18 15:36:40;;;;;;;8.80;6.83;;;;;;;17.55;76.56;98792.23;1727040;81;21138;-90
2021/05/18 15:39:07;;;;;;;7.55;6.78;;;;;;;17.55;75.80;98788.19;1726483;81;21099;-91
2021/05/18 15:41:33;;;;;;;;;;;;;;;17.55;75.80;98788.19;1736718;81;21087;-91
2021/05/18 15:44:00;;;;;;;11.60;6.35;;;;;;;17.55;74.92;98784.15;1705900;82;20627;-91
2021/05/18 15:46:26;;;;;;;9.15;6.40;;;;;;;17.55;74.79;98763.95;1698207;83;21138;-91
2021/05/18 15:48:53;;;;;;;8.38;6.40;;;;;;;17.55;74.79;98763.95;1716960;82;21146;-90
2021/05/18 15:51:19;;;;;;;8.65;4.72;;;;;;;17.49;74.91;98767.98;1700129;82;21779;-90
2021/05/18 15:53:45;;;;;;;11.88;6.17;;;;;;;17.45;74.85;98767.47;1698615;81;21114;-89
2021/05/18 15:56:11;;;;;;;5.50;4.78;;;;;;;17.42;74.88;98758.58;1703704;81;21176;-91
2021/05/18 15:58:39;;;;;;;5.95;4.67;;;;;;;17.46;74.86;98755.08;1700332;83;21116;-86
2021/05/18 16:01:06;;;;;;;4.45;4.05;;;;;;;17.50;74.88;98754.00;1667140;80;21225;-91
2021/05/18 16:03:31;;;;;;;;;;;;;;;17.48;74.68;98748.08;1700210;82;21075;-92
2021/05/18 16:06:03;;;;;;;5.08;3.92;;;;;;;17.42;74.32;98743.77;1693785;82;20164;-91
2021/05/18 16:10:59;;;;;;;4.10;3.62;;;;;;;17.28;74.67;98740.83;1699482;82;21139;-91
2021/05/18 16:13:26;;;;;;;4.28;3.75;;;;;;;17.40;74.84;98745.92;1677595;84;21115;-90
2021/05/18 16:16:04;;;;;;;4.97;4.58;;;;;;;17.40;74.84;98745.92;1669303;84;21164;-92
2021/05/18 16:18:32;;;;;;;7.60;4.92;;;;;;;17.42;75.18;98751.84;1675081;84;21181;-92
2021/05/18 16:20:59;;;;;;;6.35;4.50;;;;;;;17.38;75.27;98756.16;1645304;85;21100;-92
2021/05/18 16:23:29;;;;;;;8.00;3.47;;;;;;;17.39;75.22;98761.83;1634534;86;21098;-92
2021/05/18 16:25:56;;;;;;;8.65;3.55;;;;;;;17.44;75.03;98761.28;1669219;84;21084;-91
2021/05/18 16:28:23;;;;;;;4.03;3.62;;;;;;;17.44;75.03;98755.06;1679293;84;21779;-92
2021/05/18 16:30:52;;;;;;;4.28;3.42;;;;;;;17.34;75.12;98746.47;1672194;84;21154;-91
2021/05/18 16:33:18;;;;;;;2.92;2.02;;;;;;;17.34;75.12;98746.47;1678610;83;21067;-92
2021/05/18 16:35:45;;;;;;;2.33;1.82;;;;;;;17.35;74.53;98741.88;1710228;83;21076;-92
2021/05/18 16:38:12;;;;;;;5.25;2.27;;;;;;;17.35;74.53;98741.88;1688284;83;21099;-93
2021/05/18 16:40:38;;;;;;;2.40;2.20;;;;;;;17.34;74.33;98742.43;1709604;83;21054;-92
2021/05/18 16:43:07;;;;;;;3.15;2.42;;;;;;;17.28;74.52;98742.98;1696049;83;21183;-92
2021/05/18 16:45:34;;;;;;;3.47;2.17;;;;;;;17.24;74.80;98736.52;1708482;83;21148;-91